Time;durP1;ratioP1;P1;durP2;ratioP2;P2;SDS_P1;SDS_P2;PMS_P1;PMS_P2;Temp;Humidity;BMP_temperature;BMP_pressure;BME280_temperature;BME280_humidity;BME280_pressure;Samples;Min_cycle;Max_cycle;Signal;HPM_P1;HPM_P2
2021/12/13 00:10:03;;;;;;;0.00;0.00;;;3.30;97.40;;;;;;20801121;28;20510;-50
2021/12/13 00:20:35;;;;;;;0.00;0.00;;;3.50;95.50;;;;;;20800739;28;20437;-49
2021/12/13 00:31:03;;;;;;;0.00;0.00;;;3.90;96.70;;;;;;20801597;28;20091;-50
2021/12/13 00:41:22;;;;;;;0.00;0.00;;;3.60;98.20;;;;;;20799591;28;20552;-51
2021/12/13 00:51:30;;;;;;;0.00;0.00;;;3.30;99.10;;;;;;20799465;28;20045;-50
2021/12/13 01:01:35;;;;;;;0.10;0.00;;;3.20;99.40;;;;;;20798802;28;20041;-49
2021/12/13 01:11:40;;;;;;;1.05;0.20;;;3.10;99.90;;;;;;20804218;28;20029;-49
2021/12/13 01:22:02;;;;;;;0.00;0.00;;;3.10;99.90;;;;;;20813271;28;20068;-49
2021/12/13 01:32:08;;;;;;;0.00;0.00;;;3.20;99.90;;;;;;20812439;28;20445;-52
2021/12/13 01:42:16;;;;;;;0.10;0.00;;;3.20;99.90;;;;;;20811688;28;20591;-50
2021/12/13 01:52:29;;;;;;;0.20;0.00;;;3.40;99.90;;;;;;20794726;28;20037;-50
2021/12/13 02:02:37;;;;;;;0.10;0.00;;;3.40;99.90;;;;;;20810366;28;20498;-49
2021/12/13 02:12:44;;;;;;;0.00;0.00;;;3.40;99.90;;;;;;20810923;28;20033;-51
2021/12/13 02:22:50;;;;;;;0.00;0.00;;;3.20;99.90;;;;;;20808565;28;20055;-50
2021/12/13 02:32:52;;;;;;;0.00;0.00;;;3.20;99.90;;;;;;20808350;28;20095;-50
2021/12/13 02:42:56;;;;;;;0.00;0.00;;;3.20;99.00;;;;;;20807098;28;20123;-49
2021/12/13 02:53:04;;;;;;;0.00;0.00;;;3.10;98.30;;;;;;20807514;28;20489;-55
2021/12/13 03:03:12;;;;;;;0.00;0.00;;;2.90;97.80;;;;;;20805430;28;20042;-49
2021/12/13 03:13:18;;;;;;;0.00;0.00;;;3.00;98.00;;;;;;20804862;28;20449;-52
2021/12/13 03:23:52;;;;;;;0.00;0.00;;;3.10;98.20;;;;;;20804245;28;20041;-50
2021/12/13 03:34:00;;;;;;;0.00;0.00;;;2.90;99.90;;;;;;20802663;28;20099;-51
2021/12/13 03:44:08;;;;;;;0.00;0.00;;;3.00;98.70;;;;;;20802568;28;20064;-51
2021/12/13 03:54:16;;;;;;;0.00;0.00;;;3.40;98.60;;;;;;20802240;28;20063;-51
2021/12/13 04:04:24;;;;;;;0.00;0.00;;;3.70;96.00;;;;;;20801689;28;20068;-51
2021/12/13 04:14:36;;;;;;;0.82;0.05;;;4.10;97.80;;;;;;20801299;28;20552;-50
2021/12/13 04:24:43;;;;;;;0.00;0.00;;;4.60;97.60;;;;;;20801105;28;20548;-53
2021/12/13 04:34:47;;;;;;;0.00;0.00;;;5.50;97.50;;;;;;20800397;28;20068;-49
2021/12/13 04:45:13;;;;;;;0.00;0.00;;;6.20;97.70;;;;;;20804291;28;20113;-52
2021/12/13 04:55:35;;;;;;;0.00;0.00;;;6.20;98.20;;;;;;20815652;28;20506;-52
2021/12/13 05:05:40;;;;;;;0.00;0.00;;;6.10;98.70;;;;;;20815081;28;20041;-52
2021/12/13 05:15:51;;;;;;;0.00;0.00;;;6.30;99.00;;;;;;20814590;28;20103;-53
2021/12/13 05:25:57;;;;;;;0.00;0.00;;;6.80;98.30;;;;;;20814485;28;20029;-53
2021/12/13 05:36:08;;;;;;;0.00;0.00;;;6.80;98.70;;;;;;20811567;28;20050;-49
2021/12/13 05:46:25;;;;;;;0.00;0.00;;;6.70;99.50;;;;;;20810763;28;20045;-49
2021/12/13 05:56:41;;;;;;;0.00;0.00;;;6.70;99.50;;;;;;20809461;28;20064;-50
2021/12/13 06:06:51;;;;;;;0.00;0.00;;;7.20;98.90;;;;;;20748784;28;20034;-50
2021/12/13 06:17:03;;;;;;;0.00;0.00;;;7.30;98.60;;;;;;20727082;28;20372;-54
2021/12/13 06:27:19;;;;;;;0.00;0.00;;;7.00;99.10;;;;;;20726233;28;20037;-49
2021/12/13 06:37:34;;;;;;;0.00;0.00;;;6.70;99.70;;;;;;20759317;28;20053;-49
2021/12/13 06:47:48;;;;;;;0.00;0.00;;;6.90;99.40;;;;;;20806334;28;20064;-50
2021/12/13 06:57:58;;;;;;;0.00;0.00;;;6.60;99.90;;;;;;20805988;28;20490;-51
2021/12/13 07:08:21;;;;;;;0.00;0.00;;;7.00;99.70;;;;;;20805923;28;20079;-49
2021/12/13 07:18:30;;;;;;;0.00;0.00;;;7.00;99.90;;;;;;20741876;28;20038;-50
2021/12/13 07:28:35;;;;;;;0.00;0.00;;;7.00;99.90;;;;;;20721803;28;20037;-54
2021/12/13 07:38:58;;;;;;;0.00;0.00;;;7.20;99.70;;;;;;20761293;28;20430;-51
2021/12/13 07:49:09;;;;;;;0.00;0.00;;;7.30;99.10;;;;;;20801908;28;20041;-50
2021/12/13 07:59:34;;;;;;;0.00;0.00;;;7.50;98.80;;;;;;20801139;28;20037;-49
2021/12/13 08:09:48;;;;;;;0.00;0.00;;;7.70;98.70;;;;;;20735583;28;20042;-49
2021/12/13 08:20:05;;;;;;;0.08;0.00;;;7.80;98.80;;;;;;20742163;28;20026;-49
2021/12/13 08:30:13;;;;;;;0.00;0.00;;;7.90;98.80;;;;;;20745508;28;20052;-52
2021/12/13 08:40:29;;;;;;;0.00;0.00;;;7.70;98.80;;;;;;20819041;28;20045;-52
2021/12/13 08:50:46;;;;;;;0.00;0.00;;;8.00;98.50;;;;;;20826638;28;20033;-49
2021/12/13 09:01:19;;;;;;;0.00;0.00;;;8.30;98.10;;;;;;20826790;28;20512;-54
2021/12/13 09:11:33;;;;;;;0.00;0.00;;;8.30;97.70;;;;;;20655705;28;20101;-49
2021/12/13 09:21:57;;;;;;;0.00;0.00;;;8.40;97.70;;;;;;20671689;28;20050;-51
2021/12/13 09:32:00;;;;;;;0.00;0.00;;;8.40;97.70;;;;;;20667936;28;20381;-51
2021/12/13 09:42:15;;;;;;;0.00;0.00;;;9.10;96.50;;;;;;20687382;28;20108;-49
2021/12/13 09:52:27;;;;;;;0.00;0.00;;;9.30;96.40;;;;;;20733008;28;20038;-52
2021/12/13 10:02:33;;;;;;;0.00;0.00;;;9.60;96.40;;;;;;20705605;28;20051;-50
2021/12/13 10:12:59;;;;;;;0.00;0.00;;;10.60;94.90;;;;;;20650026;28;20443;-51
2021/12/13 10:23:03;;;;;;;0.00;0.00;;;11.10;94.10;;;;;;20646971;28;20046;-51
2021/12/13 10:33:07;;;;;;;0.00;0.00;;;11.50;93.20;;;;;;20660399;28;20523;-55
2021/12/13 10:43:23;;;;;;;0.00;0.00;;;11.30;93.10;;;;;;20801516;28;20107;-51
2021/12/13 10:53:27;;;;;;;0.00;0.00;;;11.50;92.80;;;;;;20806011;28;20399;-52
2021/12/13 11:03:32;;;;;;;0.00;0.00;;;11.70;92.20;;;;;;20807031;28;20045;-50
2021/12/13 11:13:38;;;;;;;0.00;0.00;;;11.30;92.60;;;;;;20805789;28;20083;-50
2021/12/13 11:23:44;;;;;;;0.00;0.00;;;12.30;91.30;;;;;;20806223;28;20053;-50
2021/12/13 11:34:02;;;;;;;0.00;0.00;;;12.60;91.00;;;;;;20804460;28;20560;-51
2021/12/13 11:44:26;;;;;;;0.00;0.00;;;12.50;90.80;;;;;;20804521;28;20502;-52
2021/12/13 11:54:57;;;;;;;0.00;0.00;;;12.70;90.50;;;;;;20802124;28;20041;-51
2021/12/13 12:05:31;;;;;;;0.00;0.00;;;12.60;90.50;;;;;;20755942;28;20037;-53
2021/12/13 12:15:37;;;;;;;0.00;0.00;;;12.20;90.80;;;;;;20721028;28;20514;-53
2021/12/13 12:25:40;;;;;;;0.00;0.00;;;12.20;91.00;;;;;;20719200;28;20115;-52
2021/12/13 12:35:50;;;;;;;0.00;0.00;;;11.80;91.10;;;;;;20755946;28;20053;-50
2021/12/13 12:46:00;;;;;;;0.10;0.00;;;11.20;92.00;;;;;;20800747;28;20037;-50
2021/12/13 12:56:06;;;;;;;0.10;0.00;;;11.40;91.90;;;;;;20799799;28;20552;-51
2021/12/13 13:06:13;;;;;;;0.00;0.00;;;11.60;91.90;;;;;;20803548;28;20478;-50
2021/12/13 13:16:19;;;;;;;0.00;0.00;;;11.50;91.30;;;;;;20769051;28;20096;-52
2021/12/13 13:26:26;;;;;;;0.00;0.00;;;11.10;91.90;;;;;;20733504;28;20424;-55
2021/12/13 13:36:47;;;;;;;0.00;0.00;;;10.40;93.40;;;;;;20737561;28;20049;-53
2021/12/13 13:47:02;;;;;;;0.00;0.00;;;9.90;94.00;;;;;;20796931;28;20049;-55
2021/12/13 13:57:15;;;;;;;0.00;0.00;;;10.00;93.80;;;;;;20813902;28;20033;-51
2021/12/13 14:07:22;;;;;;;0.00;0.00;;;9.70;94.10;;;;;;20814321;28;20041;-53
2021/12/13 14:17:53;;;;;;;0.05;0.00;;;9.50;94.90;;;;;;20813632;28;20041;-56
2021/12/13 14:27:55;;;;;;;0.00;0.00;;;9.30;95.10;;;;;;20828836;28;20104;-53
2021/12/13 14:38:10;;;;;;;0.05;0.00;;;9.10;95.60;;;;;;20810096;28;20045;-51
2021/12/13 14:48:21;;;;;;;0.00;0.00;;;8.90;95.40;;;;;;20794338;28;20045;-51
2021/12/13 14:58:38;;;;;;;0.45;0.20;;;8.70;95.80;;;;;;20809171;28;20037;-54
2021/12/13 15:08:44;;;;;;;0.00;0.00;;;8.20;96.20;;;;;;20806361;28;20087;-51
2021/12/13 15:18:51;;;;;;;0.00;0.00;;;7.90;96.80;;;;;;20805343;28;20083;-52
2021/12/13 15:28:58;;;;;;;0.00;0.00;;;7.60;97.30;;;;;;20786293;28;20387;-50
2021/12/13 15:39:08;;;;;;;0.00;0.00;;;7.40;97.70;;;;;;20802453;28;20107;-51
2021/12/13 15:49:36;;;;;;;0.10;0.00;;;7.10;98.20;;;;;;20802363;28;20095;-54
2021/12/13 15:59:48;;;;;;;0.00;0.00;;;6.90;98.40;;;;;;20798561;28;20108;-51
2021/12/13 16:09:55;;;;;;;0.00;0.00;;;6.90;98.50;;;;;;20719879;28;20171;-51
2021/12/13 16:20:15;;;;;;;0.00;0.00;;;6.80;98.70;;;;;;20719150;28;20541;-50
2021/12/13 16:30:33;;;;;;;0.00;0.00;;;6.70;98.80;;;;;;20718990;28;20034;-49
2021/12/13 16:40:39;;;;;;;0.00;0.00;;;6.90;98.40;;;;;;20797741;28;20049;-50
2021/12/13 16:50:42;;;;;;;0.00;0.00;;;7.10;98.00;;;;;;20815881;28;20099;-51
2021/12/13 17:00:53;;;;;;;0.00;0.00;;;7.20;97.90;;;;;;20815194;28;20037;-54
2021/12/13 17:11:01;;;;;;;0.00;0.00;;;7.40;97.10;;;;;;20814335;28;20068;-53
2021/12/13 17:21:44;;;;;;;0.00;0.00;;;7.60;96.80;;;;;;20732619;28;20386;-50
2021/12/13 17:32:08;;;;;;;0.00;0.00;;;7.50;96.80;;;;;;20481666;29;20556;-52
2021/12/13 17:42:15;;;;;;;0.10;0.00;;;7.40;96.70;;;;;;20563826;28;20126;-51
2021/12/13 17:52:20;;;;;;;0.00;0.00;;;7.30;96.70;;;;;;20509602;28;20047;-52
2021/12/13 18:02:26;;;;;;;0.10;0.00;;;7.00;97.20;;;;;;20564106;28;20070;-54
2021/12/13 18:12:39;;;;;;;0.00;0.00;;;6.80;97.60;;;;;;20745848;28;20038;-50
2021/12/13 18:23:16;;;;;;;0.00;0.00;;;6.80;97.70;;;;;;20743365;28;20037;-52
2021/12/13 18:33:41;;;;;;;0.00;0.00;;;6.80;97.20;;;;;;20752885;28;20103;-54
2021/12/13 18:44:03;;;;;;;0.00;0.00;;;7.00;96.00;;;;;;20808053;28;20068;-51
2021/12/13 18:54:06;;;;;;;0.00;0.00;;;7.50;94.90;;;;;;20806798;28;20029;-51
2021/12/13 19:04:21;;;;;;;1.45;0.00;;;7.50;94.30;;;;;;20805819;28;20037;-51
2021/12/13 19:14:41;;;;;;;0.10;0.00;;;7.60;94.30;;;;;;20804687;28;20061;-50
2021/12/13 19:24:48;;;;;;;0.00;0.00;;;7.30;94.70;;;;;;20805149;28;20552;-50
2021/12/13 19:35:00;;;;;;;0.17;0.00;;;7.10;94.80;;;;;;20803233;28;20049;-49
2021/12/13 19:45:14;;;;;;;0.00;0.00;;;7.30;93.80;;;;;;20802728;28;20576;-49
2021/12/13 19:55:24;;;;;;;0.25;0.00;;;7.60;93.20;;;;;;20786504;28;20030;-51
2021/12/13 20:05:43;;;;;;;0.10;0.00;;;7.50;93.40;;;;;;20752083;28;20033;-50
2021/12/13 20:16:20;;;;;;;0.08;0.00;;;7.10;93.70;;;;;;20718942;28;20042;-53
2021/12/13 20:26:36;;;;;;;0.10;0.00;;;7.10;93.40;;;;;;20718721;28;20042;-50
2021/12/13 20:36:53;;;;;;;0.00;0.00;;;7.20;93.60;;;;;;20762020;28;20038;-52
2021/12/13 20:47:03;;;;;;;0.20;0.10;;;6.90;94.00;;;;;;20798957;28;20045;-50
2021/12/13 20:57:10;;;;;;;0.00;0.00;;;6.40;95.20;;;;;;20798493;28;20037;-50
2021/12/13 21:07:37;;;;;;;0.10;0.00;;;6.20;95.10;;;;;;20798721;28;20426;-53
2021/12/13 21:17:47;;;;;;;0.00;0.00;;;6.60;94.40;;;;;;20741052;28;20471;-50
2021/12/13 21:28:30;;;;;;;0.20;0.00;;;6.50;94.90;;;;;;20720083;28;20041;-55
2021/12/13 21:49:04;;;;;;;0.00;0.00;;;6.30;95.30;;;;;;20794203;28;20037;-50
2021/12/13 21:59:10;;;;;;;0.00;0.00;;;6.30;94.60;;;;;;20810902;28;20497;-49
2021/12/13 22:09:19;;;;;;;0.00;0.00;;;6.10;95.10;;;;;;20808670;28;20033;-53
2021/12/13 22:19:28;;;;;;;0.43;0.05;;;5.50;96.50;;;;;;20808074;28;20088;-54
2021/12/13 22:29:32;;;;;;;0.00;0.00;;;5.20;97.20;;;;;;20808084;28;20068;-49
2021/12/13 22:39:37;;;;;;;0.32;0.00;;;4.90;97.60;;;;;;20806160;28;20046;-50
2021/12/13 22:49:45;;;;;;;0.00;0.00;;;4.90;96.90;;;;;;20806497;28;20037;-50
2021/12/13 22:59:50;;;;;;;0.00;0.00;;;5.00;97.10;;;;;;20805361;28;20045;-51
2021/12/13 23:10:48;;;;;;;0.00;0.00;;;5.00;96.20;;;;;;20804013;28;20117;-54
2021/12/13 23:20:27;;;;;;;0.10;0.00;;;5.30;94.80;;;;;;20804869;28;20441;-51
2021/12/13 23:30:39;;;;;;;0.00;0.00;;;6.40;94.00;;;;;;20802706;28;20390;-52
2021/12/13 23:51:08;;;;;;;0.30;0.00;;;5.80;94.70;;;;;;20800465;28;20099;-55
